Terminal Aerodrome Forecast
Issued by NWS

Home | Current Version | Previous Version | Text Only | Print | Product List | Glossary Off
Versions: 1 2 3 4 5 6 7 8 9 10 11 12 13

000
FTUS45 KGGW 251100
TAFSDY
TAF
KSDY 251128Z 2512/2612 30010KT P6SM SCT015 BKN060
      TEMPO 2512/2515 3SM BR BKN015
     FM251800 30011KT P6SM BKN060
     FM260000 VRB06KT P6SM SCT060
     FM260900 00000KT 1SM BR SCT001
      AMD LTD TO CLD VIS AND WIND=

USA.gov is the U.S. government's official web portal to all federal, state and local government web resources and services.